sensor_id;sensor_type;location;lat;lon;timestamp;P1;P2;P0
77320;PMS7003;66382;52.252;8.780;2023-04-25T00:01:08;7.50;7.50;5.00
77320;PMS7003;66382;52.252;8.780;2023-04-25T00:03:34;7.25;7.25;5.25
77320;PMS7003;66382;52.252;8.780;2023-04-25T00:05:59;7.75;7.75;6.25
77320;PMS7003;66382;52.252;8.780;2023-04-25T00:08:25;8.00;8.00;6.00
77320;PMS7003;66382;52.252;8.780;2023-04-25T00:10:51;8.00;8.00;6.00
77320;PMS7003;66382;52.252;8.780;2023-04-25T00:13:17;8.00;8.00;6.00
77320;PMS7003;66382;52.252;8.780;2023-04-25T00:15:44;9.00;9.00;5.75
77320;PMS7003;66382;52.252;8.780;2023-04-25T00:18:09;9.25;9.25;7.00
77320;PMS7003;66382;52.252;8.780;2023-04-25T00:20:35;7.25;7.25;6.00
77320;PMS7003;66382;52.252;8.780;2023-04-25T00:23:01;8.00;8.00;5.75
77320;PMS7003;66382;52.252;8.780;2023-04-25T00:25:26;7.25;7.25;6.50
77320;PMS7003;66382;52.252;8.780;2023-04-25T00:27:52;8.50;8.50;6.00
77320;PMS7003;66382;52.252;8.780;2023-04-25T00:30:18;7.00;7.00;5.25
77320;PMS7003;66382;52.252;8.780;2023-04-25T00:32:45;8.00;8.00;6.75
77320;PMS7003;66382;52.252;8.780;2023-04-25T00:35:11;8.00;8.00;6.75
77320;PMS7003;66382;52.252;8.780;2023-04-25T00:37:36;10.25;9.00;7.00
77320;PMS7003;66382;52.252;8.780;2023-04-25T00:40:03;8.00;8.00;6.00
77320;PMS7003;66382;52.252;8.780;2023-04-25T00:42:30;9.25;9.25;7.00
77320;PMS7003;66382;52.252;8.780;2023-04-25T00:44:56;8.50;8.25;6.00
77320;PMS7003;66382;52.252;8.780;2023-04-25T00:47:23;8.25;8.25;5.75
77320;PMS7003;66382;52.252;8.780;2023-04-25T00:49:51;11.00;9.50;6.00
77320;PMS7003;66382;52.252;8.780;2023-04-25T00:52:17;7.75;7.75;6.50
77320;PMS7003;66382;52.252;8.780;2023-04-25T00:54:43;8.00;8.00;6.00
77320;PMS7003;66382;52.252;8.780;2023-04-25T00:57:08;7.00;7.00;6.00
77320;PMS7003;66382;52.252;8.780;2023-04-25T00:59:34;8.25;8.25;6.75
77320;PMS7003;66382;52.252;8.780;2023-04-25T01:02:02;8.25;8.25;6.00
77320;PMS7003;66382;52.252;8.780;2023-04-25T01:04:29;10.50;10.50;7.00
77320;PMS7003;66382;52.252;8.780;2023-04-25T01:06:56;10.25;9.00;7.00
77320;PMS7003;66382;52.252;8.780;2023-04-25T01:09:22;10.25;8.50;6.50
77320;PMS7003;66382;52.252;8.780;2023-04-25T01:11:48;8.25;8.25;6.25
77320;PMS7003;66382;52.252;8.780;2023-04-25T01:14:14;8.25;8.25;6.50
77320;PMS7003;66382;52.252;8.780;2023-04-25T01:16:40;7.50;6.50;5.00
77320;PMS7003;66382;52.252;8.780;2023-04-25T01:19:06;9.25;9.25;6.75
77320;PMS7003;66382;52.252;8.780;2023-04-25T01:21:36;9.50;9.50;6.00
77320;PMS7003;66382;52.252;8.780;2023-04-25T01:24:02;8.00;8.00;7.00
77320;PMS7003;66382;52.252;8.780;2023-04-25T01:26:28;10.50;10.50;7.50
77320;PMS7003;66382;52.252;8.780;2023-04-25T01:28:54;9.50;9.50;7.25
77320;PMS7003;66382;52.252;8.780;2023-04-25T01:31:20;9.25;9.25;6.50
77320;PMS7003;66382;52.252;8.780;2023-04-25T01:33:47;8.75;8.75;7.00
77320;PMS7003;66382;52.252;8.780;2023-04-25T01:36:12;9.25;8.00;6.75
77320;PMS7003;66382;52.252;8.780;2023-04-25T01:38:41;8.50;8.50;6.00
77320;PMS7003;66382;52.252;8.780;2023-04-25T01:41:07;8.25;8.25;6.00
77320;PMS7003;66382;52.252;8.780;2023-04-25T01:43:33;7.25;7.25;6.00
77320;PMS7003;66382;52.252;8.780;2023-04-25T01:45:59;5.75;5.75;4.00
77320;PMS7003;66382;52.252;8.780;2023-04-25T01:48:25;6.00;6.00;4.00
77320;PMS7003;66382;52.252;8.780;2023-04-25T01:50:50;6.00;6.00;4.50
77320;PMS7003;66382;52.252;8.780;2023-04-25T01:53:16;4.25;4.25;3.25
77320;PMS7003;66382;52.252;8.780;2023-04-25T01:55:43;6.00;6.00;5.00
77320;PMS7003;66382;52.252;8.780;2023-04-25T01:58:09;6.75;6.75;4.50
77320;PMS7003;66382;52.252;8.780;2023-04-25T02:00:35;6.00;6.00;4.75
77320;PMS7003;66382;52.252;8.780;2023-04-25T02:03:01;6.00;6.00;4.00
77320;PMS7003;66382;52.252;8.780;2023-04-25T02:05:26;4.00;4.00;3.75
77320;PMS7003;66382;52.252;8.780;2023-04-25T02:07:52;6.75;6.75;4.00
77320;PMS7003;66382;52.252;8.780;2023-04-25T02:10:18;6.00;6.00;5.50
77320;PMS7003;66382;52.252;8.780;2023-04-25T02:12:45;7.25;6.50;5.00
77320;PMS7003;66382;52.252;8.780;2023-04-25T02:15:11;5.75;5.75;4.00
77320;PMS7003;66382;52.252;8.780;2023-04-25T02:17:36;6.00;6.00;4.25
77320;PMS7003;66382;52.252;8.780;2023-04-25T02:20:02;8.00;6.00;5.00
77320;PMS7003;66382;52.252;8.780;2023-04-25T02:22:28;6.50;5.00;3.00
77320;PMS7003;66382;52.252;8.780;2023-04-25T02:24:54;6.00;6.00;4.25
77320;PMS7003;66382;52.252;8.780;2023-04-25T02:27:20;4.25;4.25;3.00
77320;PMS7003;66382;52.252;8.780;2023-04-25T02:29:47;5.25;5.25;4.00
77320;PMS7003;66382;52.252;8.780;2023-04-25T02:32:13;6.75;6.25;5.00
77320;PMS7003;66382;52.252;8.780;2023-04-25T02:34:38;6.75;6.75;3.75
77320;PMS7003;66382;52.252;8.780;2023-04-25T02:37:04;5.00;5.00;4.00
77320;PMS7003;66382;52.252;8.780;2023-04-25T02:39:30;4.00;4.00;3.25
77320;PMS7003;66382;52.252;8.780;2023-04-25T02:41:55;5.00;5.00;4.00
77320;PMS7003;66382;52.252;8.780;2023-04-25T02:44:21;7.00;7.00;4.00
77320;PMS7003;66382;52.252;8.780;2023-04-25T02:46:48;5.25;5.25;3.75
77320;PMS7003;66382;52.252;8.780;2023-04-25T02:49:14;4.25;4.25;3.00
77320;PMS7003;66382;52.252;8.780;2023-04-25T02:51:40;5.75;5.75;3.50
77320;PMS7003;66382;52.252;8.780;2023-04-25T02:54:05;4.50;4.50;3.00
77320;PMS7003;66382;52.252;8.780;2023-04-25T02:56:31;6.00;6.00;4.25
77320;PMS7003;66382;52.252;8.780;2023-04-25T02:58:57;6.50;6.50;5.00
77320;PMS7003;66382;52.252;8.780;2023-04-25T03:01:23;4.00;4.00;3.00
77320;PMS7003;66382;52.252;8.780;2023-04-25T03:03:50;3.50;3.50;2.00
77320;PMS7003;66382;52.252;8.780;2023-04-25T03:06:16;4.25;4.25;3.50
77320;PMS7003;66382;52.252;8.780;2023-04-25T03:08:42;7.00;7.00;5.00
77320;PMS7003;66382;52.252;8.780;2023-04-25T03:11:07;6.00;5.25;3.75
77320;PMS7003;66382;52.252;8.780;2023-04-25T03:13:33;5.00;4.00;2.00
77320;PMS7003;66382;52.252;8.780;2023-04-25T03:15:59;4.00;4.00;2.50
77320;PMS7003;66382;52.252;8.780;2023-04-25T03:18:24;7.25;7.00;5.00
77320;PMS7003;66382;52.252;8.780;2023-04-25T03:20:52;7.25;7.25;4.00
77320;PMS7003;66382;52.252;8.780;2023-04-25T03:23:17;6.50;6.50;4.50
77320;PMS7003;66382;52.252;8.780;2023-04-25T03:25:43;4.75;4.75;4.00
77320;PMS7003;66382;52.252;8.780;2023-04-25T03:28:09;6.25;5.25;3.75
77320;PMS7003;66382;52.252;8.780;2023-04-25T03:30:34;5.25;5.25;4.00
77320;PMS7003;66382;52.252;8.780;2023-04-25T03:33:00;5.00;5.00;4.25
77320;PMS7003;66382;52.252;8.780;2023-04-25T03:35:26;7.25;7.25;5.00
77320;PMS7003;66382;52.252;8.780;2023-04-25T03:37:53;6.00;6.00;5.00
77320;PMS7003;66382;52.252;8.780;2023-04-25T03:40:18;6.00;6.00;5.00
77320;PMS7003;66382;52.252;8.780;2023-04-25T03:42:44;7.00;7.00;5.00
77320;PMS7003;66382;52.252;8.780;2023-04-25T03:45:10;4.75;4.75;3.00
77320;PMS7003;66382;52.252;8.780;2023-04-25T03:47:36;6.00;6.00;5.00
77320;PMS7003;66382;52.252;8.780;2023-04-25T03:50:01;8.25;8.25;5.00
77320;PMS7003;66382;52.252;8.780;2023-04-25T03:52:27;6.25;6.25;4.25
77320;PMS7003;66382;52.252;8.780;2023-04-25T03:54:54;4.75;4.75;4.00
77320;PMS7003;66382;52.252;8.780;2023-04-25T03:57:20;5.00;5.00;4.00
77320;PMS7003;66382;52.252;8.780;2023-04-25T03:59:45;5.00;5.00;4.00
77320;PMS7003;66382;52.252;8.780;2023-04-25T04:02:11;4.00;4.00;3.00
77320;PMS7003;66382;52.252;8.780;2023-04-25T04:04:37;6.25;6.25;3.75
77320;PMS7003;66382;52.252;8.780;2023-04-25T04:07:02;4.50;4.50;3.00
77320;PMS7003;66382;52.252;8.780;2023-04-25T04:09:29;5.50;5.50;4.50
77320;PMS7003;66382;52.252;8.780;2023-04-25T04:11:56;4.00;4.00;4.00
77320;PMS7003;66382;52.252;8.780;2023-04-25T04:14:21;5.75;5.75;4.50
77320;PMS7003;66382;52.252;8.780;2023-04-25T04:16:47;4.50;3.00;2.25
77320;PMS7003;66382;52.252;8.780;2023-04-25T04:19:13;4.00;4.00;3.75
77320;PMS7003;66382;52.252;8.780;2023-04-25T04:21:39;2.50;2.50;1.50
77320;PMS7003;66382;52.252;8.780;2023-04-25T04:24:05;6.00;6.00;5.75
77320;PMS7003;66382;52.252;8.780;2023-04-25T04:26:31;5.25;5.25;3.75
77320;PMS7003;66382;52.252;8.780;2023-04-25T04:28:58;5.25;5.25;3.75
77320;PMS7003;66382;52.252;8.780;2023-04-25T04:31:24;2.00;2.00;1.25
77320;PMS7003;66382;52.252;8.780;2023-04-25T04:33:50;4.75;4.75;4.00
77320;PMS7003;66382;52.252;8.780;2023-04-25T04:36:16;4.50;4.50;3.50
77320;PMS7003;66382;52.252;8.780;2023-04-25T04:38:41;5.75;5.75;4.00
77320;PMS7003;66382;52.252;8.780;2023-04-25T04:41:07;3.00;3.00;3.00
77320;PMS7003;66382;52.252;8.780;2023-04-25T04:43:34;6.50;6.50;5.00
77320;PMS7003;66382;52.252;8.780;2023-04-25T04:46:01;5.25;5.25;3.25
77320;PMS7003;66382;52.252;8.780;2023-04-25T04:48:27;7.25;7.25;5.50
77320;PMS7003;66382;52.252;8.780;2023-04-25T04:50:53;6.00;6.00;4.75
77320;PMS7003;66382;52.252;8.780;2023-04-25T04:53:19;5.25;5.25;3.75
77320;PMS7003;66382;52.252;8.780;2023-04-25T04:55:44;1.75;1.75;0.00
77320;PMS7003;66382;52.252;8.780;2023-04-25T04:58:10;6.25;6.25;3.50
77320;PMS7003;66382;52.252;8.780;2023-04-25T05:00:36;7.00;6.00;4.00
77320;PMS7003;66382;52.252;8.780;2023-04-25T05:03:03;6.75;6.75;5.00
77320;PMS7003;66382;52.252;8.780;2023-04-25T05:05:28;5.75;5.75;4.00
77320;PMS7003;66382;52.252;8.780;2023-04-25T05:07:54;5.75;5.75;4.75
77320;PMS7003;66382;52.252;8.780;2023-04-25T05:10:20;5.00;5.00;4.00
77320;PMS7003;66382;52.252;8.780;2023-04-25T05:12:46;7.75;7.75;6.00
77320;PMS7003;66382;52.252;8.780;2023-04-25T05:15:11;7.00;7.00;5.00
77320;PMS7003;66382;52.252;8.780;2023-04-25T05:17:37;7.75;7.75;5.25
77320;PMS7003;66382;52.252;8.780;2023-04-25T05:20:05;5.00;5.00;4.50
77320;PMS7003;66382;52.252;8.780;2023-04-25T05:22:31;5.75;5.75;4.50
77320;PMS7003;66382;52.252;8.780;2023-04-25T05:24:57;8.00;8.00;5.50
77320;PMS7003;66382;52.252;8.780;2023-04-25T05:27:23;9.75;9.75;6.50
77320;PMS7003;66382;52.252;8.780;2023-04-25T05:29:49;8.00;8.00;6.75
77320;PMS7003;66382;52.252;8.780;2023-04-25T05:32:15;6.00;6.00;4.25
77320;PMS7003;66382;52.252;8.780;2023-04-25T05:34:40;7.00;7.00;5.00
77320;PMS7003;66382;52.252;8.780;2023-04-25T05:37:07;6.00;6.00;5.00
77320;PMS7003;66382;52.252;8.780;2023-04-25T05:39:33;8.00;8.00;5.00
77320;PMS7003;66382;52.252;8.780;2023-04-25T05:41:59;5.75;5.75;4.00
77320;PMS7003;66382;52.252;8.780;2023-04-25T05:44:24;5.25;5.25;4.00
77320;PMS7003;66382;52.252;8.780;2023-04-25T05:46:50;4.75;4.75;3.00
77320;PMS7003;66382;52.252;8.780;2023-04-25T05:49:16;5.75;5.75;3.75
77320;PMS7003;66382;52.252;8.780;2023-04-25T05:51:41;5.00;4.50;4.00
77320;PMS7003;66382;52.252;8.780;2023-04-25T05:54:08;4.25;4.25;3.00
77320;PMS7003;66382;52.252;8.780;2023-04-25T05:56:34;3.00;3.00;3.00
77320;PMS7003;66382;52.252;8.780;2023-04-25T05:59:00;4.75;4.75;3.75
77320;PMS7003;66382;52.252;8.780;2023-04-25T06:01:25;5.50;5.50;5.00
77320;PMS7003;66382;52.252;8.780;2023-04-25T06:03:51;4.25;4.25;2.25
77320;PMS7003;66382;52.252;8.780;2023-04-25T06:06:17;3.75;3.75;3.25
77320;PMS7003;66382;52.252;8.780;2023-04-25T06:08:43;6.00;6.00;3.25
77320;PMS7003;66382;52.252;8.780;2023-04-25T06:11:11;4.50;4.00;3.25
77320;PMS7003;66382;52.252;8.780;2023-04-25T06:13:37;4.75;4.75;3.00
77320;PMS7003;66382;52.252;8.780;2023-04-25T06:16:02;5.25;5.25;3.00
77320;PMS7003;66382;52.252;8.780;2023-04-25T06:18:28;6.25;6.00;4.50
77320;PMS7003;66382;52.252;8.780;2023-04-25T06:20:54;4.75;4.75;3.50
77320;PMS7003;66382;52.252;8.780;2023-04-25T06:23:20;2.00;2.00;2.00
77320;PMS7003;66382;52.252;8.780;2023-04-25T06:25:45;5.25;5.25;3.50
77320;PMS7003;66382;52.252;8.780;2023-04-25T06:28:12;4.00;4.00;3.25
77320;PMS7003;66382;52.252;8.780;2023-04-25T06:30:38;5.75;5.75;4.00
77320;PMS7003;66382;52.252;8.780;2023-04-25T06:33:04;4.00;4.00;3.25
77320;PMS7003;66382;52.252;8.780;2023-04-25T06:35:29;4.00;4.00;3.50
77320;PMS7003;66382;52.252;8.780;2023-04-25T06:37:55;4.50;4.50;3.00
77320;PMS7003;66382;52.252;8.780;2023-04-25T06:40:21;4.25;4.25;3.25
77320;PMS7003;66382;52.252;8.780;2023-04-25T06:42:47;4.75;4.75;3.75
77320;PMS7003;66382;52.252;8.780;2023-04-25T06:45:14;1.00;1.00;1.00
77320;PMS7003;66382;52.252;8.780;2023-04-25T06:47:39;4.00;4.00;3.00
77320;PMS7003;66382;52.252;8.780;2023-04-25T06:50:05;5.00;5.00;3.00
77320;PMS7003;66382;52.252;8.780;2023-04-25T06:52:32;5.75;5.75;4.00
77320;PMS7003;66382;52.252;8.780;2023-04-25T06:54:57;3.75;3.75;3.00
77320;PMS7003;66382;52.252;8.780;2023-04-25T06:57:23;7.00;7.00;4.25
77320;PMS7003;66382;52.252;8.780;2023-04-25T06:59:49;5.00;5.00;4.00
77320;PMS7003;66382;52.252;8.780;2023-04-25T07:02:16;5.25;5.25;4.75
77320;PMS7003;66382;52.252;8.780;2023-04-25T07:04:42;4.25;4.25;3.50
77320;PMS7003;66382;52.252;8.780;2023-04-25T07:07:07;5.25;5.25;4.00
77320;PMS7003;66382;52.252;8.780;2023-04-25T07:09:33;5.00;5.00;4.00
77320;PMS7003;66382;52.252;8.780;2023-04-25T07:11:59;5.00;5.00;4.50
77320;PMS7003;66382;52.252;8.780;2023-04-25T07:14:24;4.25;4.25;3.50
77320;PMS7003;66382;52.252;8.780;2023-04-25T07:16:50;4.00;4.00;3.00
77320;PMS7003;66382;52.252;8.780;2023-04-25T07:19:17;5.75;5.75;3.25
77320;PMS7003;66382;52.252;8.780;2023-04-25T07:21:43;5.00;5.00;4.00
77320;PMS7003;66382;52.252;8.780;2023-04-25T07:24:08;2.75;2.75;2.75
77320;PMS7003;66382;52.252;8.780;2023-04-25T07:26:34;4.00;4.00;3.00
77320;PMS7003;66382;52.252;8.780;2023-04-25T07:29:00;5.00;5.00;3.25
77320;PMS7003;66382;52.252;8.780;2023-04-25T07:31:25;5.50;4.25;3.00
77320;PMS7003;66382;52.252;8.780;2023-04-25T07:33:52;2.75;2.75;2.00
77320;PMS7003;66382;52.252;8.780;2023-04-25T07:36:19;3.50;3.50;3.00
77320;PMS7003;66382;52.252;8.780;2023-04-25T07:38:44;4.00;4.00;3.00
77320;PMS7003;66382;52.252;8.780;2023-04-25T07:41:10;6.75;5.25;3.25
77320;PMS7003;66382;52.252;8.780;2023-04-25T07:43:36;6.75;6.75;5.00
77320;PMS7003;66382;52.252;8.780;2023-04-25T07:46:01;5.00;5.00;4.00
77320;PMS7003;66382;52.252;8.780;2023-04-25T07:48:27;5.00;4.00;2.67
77320;PMS7003;66382;52.252;8.780;2023-04-25T07:50:53;3.00;3.00;2.00
77320;PMS7003;66382;52.252;8.780;2023-04-25T07:53:20;3.00;3.00;3.00
77320;PMS7003;66382;52.252;8.780;2023-04-25T07:55:46;2.00;2.00;2.00
77320;PMS7003;66382;52.252;8.780;2023-04-25T07:58:11;4.00;4.00;3.00
77320;PMS7003;66382;52.252;8.780;2023-04-25T08:00:37;4.00;4.00;2.33
77320;PMS7003;66382;52.252;8.780;2023-04-25T08:03:03;3.00;3.00;3.00
77320;PMS7003;66382;52.252;8.780;2023-04-25T08:05:28;3.00;3.00;2.33
77320;PMS7003;66382;52.252;8.780;2023-04-25T08:07:54;2.33;2.33;2.00
77320;PMS7003;66382;52.252;8.780;2023-04-25T08:10:22;2.00;2.00;1.00
77320;PMS7003;66382;52.252;8.780;2023-04-25T08:12:47;2.00;2.00;1.67
77320;PMS7003;66382;52.252;8.780;2023-04-25T08:15:13;2.00;2.00;1.67
77320;PMS7003;66382;52.252;8.780;2023-04-25T08:17:39;4.00;4.00;3.67
77320;PMS7003;66382;52.252;8.780;2023-04-25T08:20:05;1.00;1.00;1.00
77320;PMS7003;66382;52.252;8.780;2023-04-25T08:22:32;3.00;3.00;2.67
77320;PMS7003;66382;52.252;8.780;2023-04-25T08:24:57;3.75;3.75;3.00
77320;PMS7003;66382;52.252;8.780;2023-04-25T08:27:24;3.00;3.00;3.00
77320;PMS7003;66382;52.252;8.780;2023-04-25T08:29:50;3.75;3.75;3.00
77320;PMS7003;66382;52.252;8.780;2023-04-25T08:32:16;2.00;2.00;1.00
77320;PMS7003;66382;52.252;8.780;2023-04-25T08:34:42;4.00;4.00;3.67
77320;PMS7003;66382;52.252;8.780;2023-04-25T08:37:08;3.33;3.33;2.00
77320;PMS7003;66382;52.252;8.780;2023-04-25T08:39:33;2.67;2.67;1.67
77320;PMS7003;66382;52.252;8.780;2023-04-25T08:41:59;2.00;2.00;2.00
77320;PMS7003;66382;52.252;8.780;2023-04-25T08:44:27;3.00;3.00;3.00
77320;PMS7003;66382;52.252;8.780;2023-04-25T08:46:53;2.00;2.00;1.00
77320;PMS7003;66382;52.252;8.780;2023-04-25T08:49:20;1.75;1.75;1.00
77320;PMS7003;66382;52.252;8.780;2023-04-25T08:51:46;0.67;0.67;0.67
77320;PMS7003;66382;52.252;8.780;2023-04-25T08:54:13;2.75;2.75;2.50
77320;PMS7003;66382;52.252;8.780;2023-04-25T08:56:40;3.00;3.00;2.25
77320;PMS7003;66382;52.252;8.780;2023-04-25T08:59:09;2.00;2.00;1.50
77320;PMS7003;66382;52.252;8.780;2023-04-25T09:01:37;3.00;3.00;2.00
77320;PMS7003;66382;52.252;8.780;2023-04-25T09:04:03;2.00;2.00;2.00
77320;PMS7003;66382;52.252;8.780;2023-04-25T09:06:28;3.00;3.00;2.00
77320;PMS7003;66382;52.252;8.780;2023-04-25T09:08:54;3.00;3.00;1.67
77320;PMS7003;66382;52.252;8.780;2023-04-25T09:11:26;2.67;2.67;2.00
77320;PMS7003;66382;52.252;8.780;2023-04-25T09:13:52;4.00;4.00;2.67
77320;PMS7003;66382;52.252;8.780;2023-04-25T09:19:24;4.33;4.33;3.00
77320;PMS7003;66382;52.252;8.780;2023-04-25T09:21:51;2.00;2.00;1.33
77320;PMS7003;66382;52.252;8.780;2023-04-25T09:24:19;2.00;2.00;2.00
77320;PMS7003;66382;52.252;8.780;2023-04-25T09:26:55;2.00;2.00;2.00
77320;PMS7003;66382;52.252;8.780;2023-04-25T09:29:24;1.67;1.67;1.00
77320;PMS7003;66382;52.252;8.780;2023-04-25T09:31:58;1.00;1.00;1.00
77320;PMS7003;66382;52.252;8.780;2023-04-25T09:34:38;0.67;0.67;0.67
77320;PMS7003;66382;52.252;8.780;2023-04-25T09:37:04;1.00;1.00;1.00
77320;PMS7003;66382;52.252;8.780;2023-04-25T09:39:32;1.00;1.00;1.00
77320;PMS7003;66382;52.252;8.780;2023-04-25T09:41:58;1.00;1.00;0.00
77320;PMS7003;66382;52.252;8.780;2023-04-25T09:44:24;2.00;2.00;1.00
77320;PMS7003;66382;52.252;8.780;2023-04-25T09:46:50;1.33;1.33;1.00
77320;PMS7003;66382;52.252;8.780;2023-04-25T09:49:17;1.00;1.00;1.00
77320;PMS7003;66382;52.252;8.780;2023-04-25T09:51:53;0.50;0.50;0.50
77320;PMS7003;66382;52.252;8.780;2023-04-25T09:54:19;0.50;0.50;0.50
77320;PMS7003;66382;52.252;8.780;2023-04-25T09:56:45;2.00;2.00;1.00
77320;PMS7003;66382;52.252;8.780;2023-04-25T09:59:13;0.75;0.75;0.00
77320;PMS7003;66382;52.252;8.780;2023-04-25T10:01:40;1.00;1.00;1.00
77320;PMS7003;66382;52.252;8.780;2023-04-25T10:04:08;1.00;1.00;1.00
77320;PMS7003;66382;52.252;8.780;2023-04-25T10:06:37;1.00;1.00;1.00
77320;PMS7003;66382;52.252;8.780;2023-04-25T10:09:04;2.00;2.00;1.00
77320;PMS7003;66382;52.252;8.780;2023-04-25T10:11:32;1.25;1.25;1.00
77320;PMS7003;66382;52.252;8.780;2023-04-25T10:13:58;1.00;1.00;1.00
77320;PMS7003;66382;52.252;8.780;2023-04-25T10:16:25;1.00;1.00;0.50
77320;PMS7003;66382;52.252;8.780;2023-04-25T10:18:51;0.75;0.75;0.00
77320;PMS7003;66382;52.252;8.780;2023-04-25T10:21:17;1.00;1.00;1.00
77320;PMS7003;66382;52.252;8.780;2023-04-25T10:23:46;0.25;0.25;0.25
77320;PMS7003;66382;52.252;8.780;2023-04-25T10:26:13;1.00;1.00;0.50
77320;PMS7003;66382;52.252;8.780;2023-04-25T10:28:55;0.00;0.00;0.00
77320;PMS7003;66382;52.252;8.780;2023-04-25T10:31:21;1.00;1.00;1.00
77320;PMS7003;66382;52.252;8.780;2023-04-25T10:33:47;1.00;1.00;1.00
77320;PMS7003;66382;52.252;8.780;2023-04-25T10:36:14;0.00;0.00;0.00
77320;PMS7003;66382;52.252;8.780;2023-04-25T10:38:42;1.00;1.00;1.00
77320;PMS7003;66382;52.252;8.780;2023-04-25T10:41:10;1.00;1.00;0.75
77320;PMS7003;66382;52.252;8.780;2023-04-25T10:43:37;1.00;1.00;1.00
77320;PMS7003;66382;52.252;8.780;2023-04-25T10:46:14;1.00;1.00;1.00
77320;PMS7003;66382;52.252;8.780;2023-04-25T10:48:44;0.25;0.25;0.25
77320;PMS7003;66382;52.252;8.780;2023-04-25T10:51:12;0.75;0.75;0.75
77320;PMS7003;66382;52.252;8.780;2023-04-25T10:53:43;0.50;0.50;0.00
77320;PMS7003;66382;52.252;8.780;2023-04-25T10:56:11;0.00;0.00;0.00
77320;PMS7003;66382;52.252;8.780;2023-04-25T10:58:42;0.00;0.00;0.00
77320;PMS7003;66382;52.252;8.780;2023-04-25T11:01:09;0.75;0.75;0.75
77320;PMS7003;66382;52.252;8.780;2023-04-25T11:03:37;0.00;0.00;0.00
77320;PMS7003;66382;52.252;8.780;2023-04-25T11:06:05;0.00;0.00;0.00
77320;PMS7003;66382;52.252;8.780;2023-04-25T11:08:37;0.25;0.25;0.00
77320;PMS7003;66382;52.252;8.780;2023-04-25T11:11:14;0.00;0.00;0.00
77320;PMS7003;66382;52.252;8.780;2023-04-25T11:13:40;0.00;0.00;0.00
77320;PMS7003;66382;52.252;8.780;2023-04-25T11:16:06;0.67;0.67;0.00
77320;PMS7003;66382;52.252;8.780;2023-04-25T11:18:32;0.75;0.75;0.75
77320;PMS7003;66382;52.252;8.780;2023-04-25T11:20:58;0.00;0.00;0.00
77320;PMS7003;66382;52.252;8.780;2023-04-25T11:23:24;0.00;0.00;0.00
77320;PMS7003;66382;52.252;8.780;2023-04-25T11:25:49;1.00;1.00;1.00
77320;PMS7003;66382;52.252;8.780;2023-04-25T11:28:20;1.00;1.00;1.00
77320;PMS7003;66382;52.252;8.780;2023-04-25T11:30:47;1.25;1.25;1.00
77320;PMS7003;66382;52.252;8.780;2023-04-25T11:33:14;0.00;0.00;0.00
77320;PMS7003;66382;52.252;8.780;2023-04-25T11:35:40;0.67;0.67;0.00
77320;PMS7003;66382;52.252;8.780;2023-04-25T11:38:06;1.00;1.00;1.00
77320;PMS7003;66382;52.252;8.780;2023-04-25T11:40:31;1.00;1.00;1.00
77320;PMS7003;66382;52.252;8.780;2023-04-25T11:42:59;1.00;1.00;1.00
77320;PMS7003;66382;52.252;8.780;2023-04-25T11:45:27;0.00;0.00;0.00
77320;PMS7003;66382;52.252;8.780;2023-04-25T11:47:53;0.75;0.75;0.00
77320;PMS7003;66382;52.252;8.780;2023-04-25T11:50:19;1.67;1.67;1.00
77320;PMS7003;66382;52.252;8.780;2023-04-25T11:52:46;0.00;0.00;0.00
77320;PMS7003;66382;52.252;8.780;2023-04-25T11:55:13;0.00;0.00;0.00
77320;PMS7003;66382;52.252;8.780;2023-04-25T11:57:40;0.00;0.00;0.00
77320;PMS7003;66382;52.252;8.780;2023-04-25T12:00:08;1.25;1.25;0.75
77320;PMS7003;66382;52.252;8.780;2023-04-25T12:02:36;0.25;0.25;0.00
77320;PMS7003;66382;52.252;8.780;2023-04-25T12:05:04;0.00;0.00;0.00
77320;PMS7003;66382;52.252;8.780;2023-04-25T12:07:31;0.25;0.25;0.25
77320;PMS7003;66382;52.252;8.780;2023-04-25T12:09:57;0.00;0.00;0.00
77320;PMS7003;66382;52.252;8.780;2023-04-25T12:12:26;0.00;0.00;0.00
77320;PMS7003;66382;52.252;8.780;2023-04-25T12:14:52;0.75;0.75;0.50
77320;PMS7003;66382;52.252;8.780;2023-04-25T12:17:18;1.00;1.00;1.00
77320;PMS7003;66382;52.252;8.780;2023-04-25T12:19:46;1.00;1.00;0.00
77320;PMS7003;66382;52.252;8.780;2023-04-25T12:22:19;0.25;0.25;0.25
77320;PMS7003;66382;52.252;8.780;2023-04-25T12:24:45;1.50;1.50;1.00
77320;PMS7003;66382;52.252;8.780;2023-04-25T12:27:13;0.33;0.33;0.00
77320;PMS7003;66382;52.252;8.780;2023-04-25T12:29:40;0.00;0.00;0.00
77320;PMS7003;66382;52.252;8.780;2023-04-25T12:32:16;1.00;1.00;0.25
77320;PMS7003;66382;52.252;8.780;2023-04-25T12:34:42;1.00;1.00;0.00
77320;PMS7003;66382;52.252;8.780;2023-04-25T12:37:09;0.00;0.00;0.00
77320;PMS7003;66382;52.252;8.780;2023-04-25T12:39:35;1.00;1.00;1.00
77320;PMS7003;66382;52.252;8.780;2023-04-25T12:42:00;0.00;0.00;0.00
77320;PMS7003;66382;52.252;8.780;2023-04-25T12:44:26;1.33;1.33;1.33
77320;PMS7003;66382;52.252;8.780;2023-04-25T12:46:52;1.00;1.00;0.33
77320;PMS7003;66382;52.252;8.780;2023-04-25T12:49:17;0.00;0.00;0.00
77320;PMS7003;66382;52.252;8.780;2023-04-25T12:51:43;1.00;1.00;1.00
77320;PMS7003;66382;52.252;8.780;2023-04-25T12:54:10;0.00;0.00;0.00
77320;PMS7003;66382;52.252;8.780;2023-04-25T12:56:36;0.00;0.00;0.00
77320;PMS7003;66382;52.252;8.780;2023-04-25T12:59:01;0.00;0.00;0.00
77320;PMS7003;66382;52.252;8.780;2023-04-25T13:01:28;0.67;0.67;0.00
77320;PMS7003;66382;52.252;8.780;2023-04-25T13:03:53;0.00;0.00;0.00
77320;PMS7003;66382;52.252;8.780;2023-04-25T13:06:20;0.00;0.00;0.00
77320;PMS7003;66382;52.252;8.780;2023-04-25T13:08:46;1.00;1.00;0.67
77320;PMS7003;66382;52.252;8.780;2023-04-25T13:11:13;0.00;0.00;0.00
77320;PMS7003;66382;52.252;8.780;2023-04-25T13:13:39;1.00;1.00;1.00
77320;PMS7003;66382;52.252;8.780;2023-04-25T13:16:05;1.00;1.00;1.00
77320;PMS7003;66382;52.252;8.780;2023-04-25T13:18:31;1.00;1.00;1.00
77320;PMS7003;66382;52.252;8.780;2023-04-25T13:20:57;0.00;0.00;0.00
77320;PMS7003;66382;52.252;8.780;2023-04-25T13:23:24;0.00;0.00;0.00
77320;PMS7003;66382;52.252;8.780;2023-04-25T13:25:51;1.00;1.00;1.00
77320;PMS7003;66382;52.252;8.780;2023-04-25T13:28:18;1.67;1.67;1.00
77320;PMS7003;66382;52.252;8.780;2023-04-25T13:30:44;0.67;0.67;0.33
77320;PMS7003;66382;52.252;8.780;2023-04-25T13:33:09;1.00;1.00;1.00
77320;PMS7003;66382;52.252;8.780;2023-04-25T13:35:36;2.00;2.00;1.33
77320;PMS7003;66382;52.252;8.780;2023-04-25T13:38:03;1.00;1.00;1.00
77320;PMS7003;66382;52.252;8.780;2023-04-25T13:40:29;1.00;1.00;0.67
77320;PMS7003;66382;52.252;8.780;2023-04-25T13:42:55;1.00;1.00;1.00
77320;PMS7003;66382;52.252;8.780;2023-04-25T13:45:22;0.75;0.75;0.75
77320;PMS7003;66382;52.252;8.780;2023-04-25T13:47:48;1.00;1.00;1.00
77320;PMS7003;66382;52.252;8.780;2023-04-25T13:50:14;0.00;0.00;0.00
77320;PMS7003;66382;52.252;8.780;2023-04-25T13:52:39;1.33;1.33;1.33
77320;PMS7003;66382;52.252;8.780;2023-04-25T13:55:06;1.00;1.00;1.00
77320;PMS7003;66382;52.252;8.780;2023-04-25T13:57:32;1.50;1.50;1.50
77320;PMS7003;66382;52.252;8.780;2023-04-25T13:59:58;2.00;2.00;1.00
77320;PMS7003;66382;52.252;8.780;2023-04-25T14:02:25;1.00;1.00;1.00
77320;PMS7003;66382;52.252;8.780;2023-04-25T14:04:51;0.67;0.67;0.67
77320;PMS7003;66382;52.252;8.780;2023-04-25T14:07:16;1.33;1.33;1.00
77320;PMS7003;66382;52.252;8.780;2023-04-25T14:09:43;1.00;1.00;0.00
77320;PMS7003;66382;52.252;8.780;2023-04-25T14:12:09;1.00;1.00;1.00
77320;PMS7003;66382;52.252;8.780;2023-04-25T14:14:34;1.00;1.00;0.33
77320;PMS7003;66382;52.252;8.780;2023-04-25T14:17:00;1.00;1.00;1.00
77320;PMS7003;66382;52.252;8.780;2023-04-25T14:19:27;2.00;2.00;1.67